createdAt,value
2018-05-03T00:00:28.108Z,59.92
2018-05-03T00:02:56.495Z,60.07
2018-05-03T00:05:25.795Z,60.24
2018-05-03T00:07:54.158Z,59.99
2018-05-03T00:10:22.485Z,60.07
2018-05-03T00:12:50.889Z,60.27
2018-05-03T00:15:19.212Z,60.11
2018-05-03T00:17:47.544Z,60.55
2018-05-03T00:20:15.933Z,60.54
2018-05-03T00:22:44.575Z,60.65
2018-05-03T00:25:12.964Z,60.77
2018-05-03T00:27:41.807Z,61.34
2018-05-03T00:30:10.124Z,61.60
2018-05-03T00:32:38.542Z,62.60
2018-05-03T00:35:06.943Z,62.22
2018-05-03T00:37:35.278Z,61.86
2018-05-03T00:40:04.378Z,61.52
2018-05-03T00:42:32.717Z,61.72
2018-05-03T00:45:01.843Z,62.15
2018-05-03T00:47:30.153Z,62.53
2018-05-03T00:49:58.950Z,62.72
2018-05-03T00:52:27.287Z,62.60
2018-05-03T00:54:55.630Z,62.97
2018-05-03T00:57:23.987Z,63.08
2018-05-03T00:59:52.331Z,62.71
2018-05-03T01:02:20.666Z,62.51
2018-05-03T01:04:48.985Z,61.85
2018-05-03T01:07:17.324Z,61.84
2018-05-03T01:12:13.637Z,61.40
2018-05-03T01:14:41.943Z,61.64
2018-05-03T01:17:10.271Z,62.22
2018-05-03T01:19:39.384Z,63.58
2018-05-03T01:22:08.462Z,63.43
2018-05-03T01:24:37.989Z,63.36
2018-05-03T01:27:07.112Z,63.56
2018-05-03T01:29:35.458Z,64.01
2018-05-03T01:32:03.774Z,64.08
2018-05-03T01:34:32.656Z,64.46
2018-05-03T01:37:00.980Z,64.12
2018-05-03T01:39:29.339Z,64.53
2018-05-03T01:41:57.687Z,64.59
2018-05-03T01:44:25.999Z,64.81
2018-05-03T01:46:54.451Z,64.54
2018-05-03T01:49:22.841Z,64.97
2018-05-03T01:51:52.048Z,65.11
2018-05-03T01:54:20.399Z,65.30
2018-05-03T01:56:48.961Z,64.81
2018-05-03T01:59:17.285Z,65.22
2018-05-03T02:01:45.638Z,65.58
2018-05-03T02:04:14.016Z,65.52
2018-05-03T02:06:42.368Z,65.46
2018-05-03T02:09:10.689Z,65.63
2018-05-03T02:11:39.031Z,65.45
2018-05-03T02:14:08.141Z,66.00
2018-05-03T02:16:36.450Z,65.91
2018-05-03T02:19:05.385Z,65.87
2018-05-03T02:21:33.703Z,66.51
2018-05-03T02:24:02.005Z,66.75
2018-05-03T02:26:30.363Z,66.85
2018-05-03T02:28:58.683Z,67.48
2018-05-03T02:31:27.011Z,68.30
2018-05-03T02:33:55.372Z,68.33
2018-05-03T02:36:23.714Z,68.45
2018-05-03T02:38:52.069Z,68.58
2018-05-03T02:41:20.677Z,67.70
2018-05-03T02:43:49.073Z,67.59
2018-05-03T02:46:17.383Z,67.97
2018-05-03T02:48:46.565Z,68.26
2018-05-03T02:51:15.678Z,68.32
2018-05-03T02:53:43.984Z,68.27
2018-05-03T02:56:12.317Z,68.66
2018-05-03T02:58:58.291Z,68.26
2018-05-03T03:01:50.055Z,67.91
2018-05-03T03:04:41.587Z,68.30
2018-05-03T03:17:38.475Z,70.05
2018-05-03T03:24:11.373Z,70.19
2018-05-03T03:30:34.320Z,69.44
2018-05-03T03:33:20.281Z,69.53
2018-05-03T03:36:07.702Z,69.29
2018-05-03T03:38:53.985Z,68.65
2018-05-03T03:41:37.064Z,68.17
2018-05-03T03:44:22.948Z,67.85
2018-05-03T03:46:51.293Z,67.76
2018-05-03T03:49:20.370Z,67.23
2018-05-03T03:51:48.703Z,66.67
2018-05-03T03:54:17.033Z,67.35
2018-05-03T03:56:45.348Z,67.18
2018-05-03T03:59:14.033Z,67.25
2018-05-03T04:01:42.366Z,67.94
2018-05-03T04:04:10.724Z,67.74
2018-05-03T04:06:39.081Z,67.55
2018-05-03T04:09:07.407Z,68.02
2018-05-03T04:11:35.755Z,67.93
2018-05-03T04:14:04.170Z,67.61
2018-05-03T04:16:32.530Z,67.13
2018-05-03T04:22:11.242Z,67.48
2018-05-03T04:24:57.447Z,67.16
2018-05-03T04:27:25.796Z,66.06
2018-05-03T04:29:54.143Z,65.50
2018-05-03T04:32:22.519Z,64.93
2018-05-03T04:34:50.860Z,64.36
2018-05-03T04:37:19.206Z,64.22
2018-05-03T04:39:47.787Z,63.84
2018-05-03T04:42:16.893Z,63.86
2018-05-03T04:44:46.137Z,63.87
2018-05-03T04:47:14.495Z,64.00
2018-05-03T04:49:42.846Z,64.39
2018-05-03T04:52:11.160Z,64.02
2018-05-03T04:54:39.522Z,63.00
2018-05-03T04:57:07.835Z,62.59
2018-05-03T04:59:36.178Z,62.36
2018-05-03T05:02:05.284Z,62.33
2018-05-03T05:04:33.631Z,61.86
2018-05-03T05:07:02.764Z,61.20
2018-05-03T05:09:31.132Z,61.03
2018-05-03T05:11:59.480Z,61.15
2018-05-03T05:14:28.565Z,60.24
2018-05-03T05:16:56.969Z,59.54
2018-05-03T05:19:26.073Z,59.28
2018-05-03T05:21:54.393Z,59.02
2018-05-03T05:24:22.927Z,58.98
2018-05-03T05:26:51.392Z,59.60
2018-05-03T05:29:20.507Z,59.00
2018-05-03T05:31:48.884Z,60.00
2018-05-03T05:34:17.208Z,59.81
2018-05-03T05:36:45.541Z,60.93
2018-05-03T05:39:14.680Z,60.97
2018-05-03T05:41:43.039Z,60.87
2018-05-03T05:44:12.171Z,60.74
2018-05-03T05:46:40.800Z,60.18
2018-05-03T05:49:09.140Z,59.84
2018-05-03T05:51:37.488Z,60.63
2018-05-03T05:54:05.823Z,60.91
2018-05-03T05:56:34.215Z,60.90
2018-05-03T05:59:02.518Z,61.05
2018-05-03T06:01:30.895Z,60.53
2018-05-03T06:03:59.245Z,59.29
2018-05-03T06:06:28.329Z,58.52
2018-05-03T06:08:57.770Z,57.73
2018-05-03T06:11:26.126Z,57.26
2018-05-03T06:13:55.212Z,56.59
2018-05-03T06:16:24.353Z,54.96
2018-05-03T06:18:52.734Z,54.19
2018-05-03T06:21:21.078Z,52.82
2018-05-03T06:23:50.251Z,51.98
2018-05-03T06:26:18.535Z,49.75
2018-05-03T06:28:46.919Z,48.67
2018-05-03T06:31:16.245Z,48.07
2018-05-03T06:33:44.592Z,48.65
2018-05-03T06:36:12.924Z,47.58
2018-05-03T06:38:41.283Z,46.21
2018-05-03T06:41:09.635Z,45.80
2018-05-03T06:43:37.944Z,45.66
2018-05-03T06:46:06.303Z,45.33
2018-05-03T06:48:35.382Z,44.98
2018-05-03T06:51:03.679Z,43.80
2018-05-03T06:53:33.262Z,43.65
2018-05-03T06:56:01.594Z,43.99
2018-05-03T06:58:29.999Z,43.99
2018-05-03T07:00:58.297Z,43.87
2018-05-03T07:03:26.635Z,44.47
2018-05-03T07:05:54.944Z,44.22
2018-05-03T07:08:23.300Z,43.06
2018-05-03T07:10:51.643Z,41.79
2018-05-03T07:13:19.976Z,41.60
2018-05-03T07:15:49.615Z,41.39
2018-05-03T07:18:17.955Z,40.81
2018-05-03T07:20:46.278Z,41.57
2018-05-03T07:23:15.461Z,41.14
2018-05-03T07:25:43.782Z,41.29
2018-05-03T07:28:12.090Z,41.12
2018-05-03T07:30:40.466Z,40.60
2018-05-03T07:33:08.814Z,39.68
2018-05-03T07:35:37.177Z,39.93
2018-05-03T07:38:06.424Z,39.44
2018-05-03T07:40:34.853Z,39.24
2018-05-03T07:43:03.179Z,38.74
2018-05-03T07:45:31.468Z,38.89
2018-05-03T07:47:59.798Z,38.61
2018-05-03T07:50:28.120Z,39.29
2018-05-03T07:52:56.499Z,38.99
2018-05-03T07:55:24.806Z,37.87
2018-05-03T07:57:53.147Z,37.86
2018-05-03T08:00:21.902Z,38.43
2018-05-03T08:02:50.979Z,38.73
2018-05-03T08:05:20.063Z,38.33
2018-05-03T08:07:48.396Z,38.68
2018-05-03T08:10:16.742Z,38.48
2018-05-03T08:12:45.835Z,38.31
2018-05-03T08:15:14.989Z,37.81
2018-05-03T08:17:43.311Z,37.95
2018-05-03T08:20:12.412Z,36.83
2018-05-03T08:22:41.087Z,36.81
2018-05-03T08:25:10.499Z,36.68
2018-05-03T08:27:39.590Z,36.25
2018-05-03T08:30:08.790Z,36.17
2018-05-03T08:32:37.162Z,36.13
2018-05-03T08:35:06.281Z,35.83
2018-05-03T08:37:34.640Z,35.10
2018-05-03T08:40:03.729Z,34.47
2018-05-03T08:42:32.835Z,34.01
2018-05-03T08:45:02.053Z,34.62
2018-05-03T08:47:30.448Z,34.23
2018-05-03T08:49:58.753Z,34.33
2018-05-03T08:52:27.089Z,33.73
2018-05-03T08:54:55.402Z,33.52
2018-05-03T08:57:23.741Z,33.06
2018-05-03T08:59:52.086Z,32.61
2018-05-03T09:02:20.398Z,32.45
2018-05-03T09:04:48.725Z,32.58
2018-05-03T09:07:17.444Z,30.92
2018-05-03T09:09:45.824Z,31.33
2018-05-03T09:12:14.130Z,31.48
2018-05-03T09:14:42.534Z,30.91
2018-05-03T09:17:10.866Z,31.16
2018-05-03T09:19:39.998Z,31.36
2018-05-03T09:22:08.352Z,30.49
2018-05-03T09:24:37.450Z,30.83
2018-05-03T09:27:06.959Z,30.00
2018-05-03T09:29:36.448Z,30.32
2018-05-03T09:32:04.761Z,30.51
2018-05-03T09:34:33.101Z,30.89
2018-05-03T09:37:01.499Z,29.90
2018-05-03T09:39:29.826Z,29.03
2018-05-03T09:41:58.160Z,29.64
2018-05-03T09:44:27.346Z,28.49
2018-05-03T09:46:56.398Z,27.15
2018-05-03T09:49:24.801Z,26.76
2018-05-03T09:51:53.364Z,27.43
2018-05-03T09:54:21.712Z,27.95
2018-05-03T09:56:50.053Z,27.51
2018-05-03T09:59:19.214Z,27.39
2018-05-03T10:01:47.530Z,27.25
2018-05-03T10:04:16.631Z,26.97
2018-05-03T10:06:44.991Z,26.86
2018-05-03T10:09:13.293Z,26.56
2018-05-03T10:11:42.395Z,27.23
2018-05-03T10:14:12.008Z,28.04
2018-05-03T10:16:40.352Z,28.46
2018-05-03T10:19:08.655Z,28.11
2018-05-03T10:21:37.786Z,27.20
2018-05-03T10:24:06.881Z,26.50
2018-05-03T10:26:35.331Z,25.70
2018-05-03T10:29:03.951Z,25.03
2018-05-03T10:31:32.291Z,24.27
2018-05-03T10:34:01.398Z,23.84
2018-05-03T10:36:29.963Z,24.93
2018-05-03T10:38:58.285Z,25.15
2018-05-03T10:41:26.613Z,23.12
2018-05-03T10:43:54.965Z,23.97
2018-05-03T10:46:23.374Z,23.88
2018-05-03T10:48:52.572Z,24.43
2018-05-03T10:51:20.859Z,23.26
2018-05-03T10:53:49.956Z,23.84
2018-05-03T10:56:18.321Z,24.40
2018-05-03T10:58:47.173Z,24.36
2018-05-03T11:01:15.497Z,23.78
2018-05-03T11:03:44.599Z,23.09
2018-05-03T11:06:13.712Z,23.03
2018-05-03T11:08:42.037Z,23.18
2018-05-03T11:11:10.440Z,23.08
2018-05-03T11:13:38.764Z,21.64
2018-05-03T11:16:07.096Z,21.90
2018-05-03T11:18:35.399Z,21.50
2018-05-03T11:21:04.288Z,21.64
2018-05-03T11:23:32.609Z,21.59
2018-05-03T11:26:00.942Z,22.38
2018-05-03T11:28:29.267Z,21.37
2018-05-03T11:30:57.576Z,19.80
2018-05-03T11:33:25.919Z,20.25
2018-05-03T11:35:54.299Z,20.98
2018-05-03T11:38:22.609Z,22.40
2018-05-03T11:40:50.909Z,21.04
2018-05-03T11:43:20.528Z,20.75
2018-05-03T11:45:49.624Z,20.13
2018-05-03T11:48:18.043Z,20.25
2018-05-03T11:50:46.413Z,21.42
2018-05-03T11:53:14.732Z,21.70
2018-05-03T11:55:43.065Z,21.51
2018-05-03T11:58:11.441Z,22.33
2018-05-03T12:00:39.779Z,23.40
2018-05-03T12:03:08.877Z,23.39
2018-05-03T12:05:38.390Z,22.41
2018-05-03T12:08:07.504Z,22.05
2018-05-03T12:10:35.844Z,22.52
2018-05-03T12:13:04.198Z,22.39
2018-05-03T12:15:32.518Z,22.70
2018-05-03T12:18:02.595Z,23.11
2018-05-03T12:20:30.987Z,22.88
2018-05-03T12:22:59.348Z,21.86
2018-05-03T12:25:27.697Z,20.55
2018-05-03T12:27:56.584Z,20.36
2018-05-03T12:30:24.941Z,21.45
2018-05-03T12:32:54.079Z,21.46
2018-05-03T12:35:22.434Z,20.77
2018-05-03T12:37:50.771Z,20.60
2018-05-03T12:40:19.082Z,20.23
2018-05-03T12:42:48.199Z,19.56
2018-05-03T12:45:16.503Z,19.50
2018-05-03T12:47:44.843Z,20.02
2018-05-03T12:50:14.408Z,19.73
2018-05-03T12:52:42.747Z,19.76
2018-05-03T12:55:11.100Z,19.77
2018-05-03T12:57:40.235Z,19.79
2018-05-03T13:00:08.586Z,20.31
2018-05-03T13:02:37.675Z,20.93
2018-05-03T13:05:06.817Z,21.60
2018-05-03T13:07:35.174Z,21.62
2018-05-03T13:10:03.499Z,22.41
2018-05-03T13:12:32.925Z,22.12
2018-05-03T13:15:02.022Z,22.60
2018-05-03T13:17:30.355Z,22.50
2018-05-03T13:19:58.708Z,22.79
2018-05-03T13:22:27.011Z,22.72
2018-05-03T13:24:55.339Z,23.08
2018-05-03T13:27:24.451Z,23.00
2018-05-03T13:29:52.783Z,23.55
2018-05-03T13:32:21.242Z,23.54
2018-05-03T13:34:49.888Z,23.96
2018-05-03T13:37:18.991Z,24.38
2018-05-03T13:39:48.070Z,24.34
2018-05-03T13:42:16.439Z,24.70
2018-05-03T13:44:44.765Z,24.66
2018-05-03T13:47:13.086Z,24.82
2018-05-03T13:49:41.432Z,24.96
2018-05-03T13:52:09.747Z,24.69
2018-05-03T13:54:38.116Z,24.81
2018-05-03T13:57:06.699Z,25.05
2018-05-03T13:59:35.051Z,24.75
2018-05-03T14:02:03.514Z,24.25
2018-05-03T14:04:31.811Z,24.23
2018-05-03T14:07:00.142Z,24.73
2018-05-03T14:09:28.486Z,24.55
2018-05-03T14:11:56.869Z,24.89
2018-05-03T14:14:25.191Z,25.00
2018-05-03T14:16:53.519Z,25.21
2018-05-03T14:19:22.328Z,25.62
2018-05-03T14:21:50.689Z,25.73
2018-05-03T14:24:19.018Z,26.17
2018-05-03T14:26:48.131Z,26.50
2018-05-03T14:29:16.458Z,26.27
2018-05-03T14:31:44.785Z,26.08
2018-05-03T14:34:13.717Z,26.20
2018-05-03T14:36:42.039Z,26.46
2018-05-03T14:39:10.425Z,26.71
2018-05-03T14:41:39.129Z,26.79
2018-05-03T14:44:07.458Z,26.66
2018-05-03T14:46:35.775Z,26.47
2018-05-03T14:49:04.153Z,26.10
2018-05-03T14:51:32.495Z,25.68
2018-05-03T14:54:00.868Z,25.21
2018-05-03T14:56:29.250Z,25.58
2018-05-03T14:58:57.568Z,25.92
2018-05-03T15:01:26.657Z,26.25
2018-05-03T15:03:56.271Z,26.23
2018-05-03T15:06:24.607Z,26.41
2018-05-03T15:08:52.942Z,27.62
2018-05-03T15:11:21.291Z,27.22
2018-05-03T15:13:49.607Z,26.63
2018-05-03T15:16:18.044Z,25.86
2018-05-03T15:18:46.369Z,26.25
2018-05-03T15:21:14.791Z,26.03
2018-05-03T15:23:43.132Z,26.31
2018-05-03T15:26:11.952Z,26.28
2018-05-03T15:28:40.284Z,25.96
2018-05-03T15:31:08.595Z,25.96
2018-05-03T15:33:36.975Z,26.68
2018-05-03T15:36:05.311Z,26.07
2018-05-03T15:38:34.383Z,26.98
2018-05-03T15:41:02.777Z,25.79
2018-05-03T15:43:31.884Z,25.85
2018-05-03T15:46:00.983Z,25.56
2018-05-03T15:48:29.700Z,26.34
2018-05-03T15:50:58.124Z,26.26
2018-05-03T15:53:26.459Z,26.22
2018-05-03T15:55:54.824Z,26.65
2018-05-03T15:58:23.122Z,26.53
2018-05-03T16:00:51.461Z,26.59
2018-05-03T16:03:20.661Z,26.64
2018-05-03T16:05:49.082Z,26.10
2018-05-03T16:08:17.429Z,25.73
2018-05-03T16:10:45.893Z,26.21
2018-05-03T16:13:14.203Z,26.42
2018-05-03T16:15:42.518Z,27.10
2018-05-03T16:18:10.887Z,26.69
2018-05-03T16:20:39.276Z,27.12
2018-05-03T16:23:07.622Z,27.13
2018-05-03T16:25:36.000Z,27.20
2018-05-03T16:28:04.347Z,27.41
2018-05-03T16:30:33.437Z,27.00
2018-05-03T16:33:03.055Z,27.08
2018-05-03T16:35:32.173Z,27.21
2018-05-03T16:38:00.627Z,27.41
2018-05-03T16:40:29.732Z,28.37
2018-05-03T16:42:58.060Z,28.91
2018-05-03T16:45:27.174Z,29.03
2018-05-03T16:47:55.533Z,29.07
2018-05-03T16:50:23.888Z,29.51
2018-05-03T16:52:52.226Z,29.93
2018-05-03T16:55:21.562Z,30.16
2018-05-03T16:57:49.898Z,30.64
2018-05-03T17:00:18.222Z,30.59
2018-05-03T17:02:46.878Z,30.92
2018-05-03T17:05:15.993Z,31.36
2018-05-03T17:07:44.342Z,31.73
2018-05-03T17:10:12.780Z,32.46
2018-05-03T17:12:41.182Z,32.36
2018-05-03T17:15:09.499Z,32.41
2018-05-03T17:17:38.179Z,32.44
2018-05-03T17:20:06.519Z,32.47
2018-05-03T17:22:34.851Z,32.70
2018-05-03T17:25:03.255Z,32.90
2018-05-03T17:27:31.621Z,32.68
2018-05-03T17:30:00.013Z,33.19
2018-05-03T17:32:28.380Z,33.40
2018-05-03T17:34:56.744Z,33.75
2018-05-03T17:37:25.343Z,33.95
2018-05-03T17:39:53.820Z,34.20
2018-05-03T17:42:22.198Z,34.16
2018-05-03T17:44:50.559Z,34.37
2018-05-03T17:47:19.728Z,34.43
2018-05-03T17:49:48.095Z,35.05
2018-05-03T17:52:16.440Z,35.07
2018-05-03T17:54:44.878Z,35.40
2018-05-03T17:57:13.225Z,35.72
2018-05-03T17:59:41.557Z,35.57
2018-05-03T18:02:10.229Z,35.92
2018-05-03T18:04:38.655Z,36.22
2018-05-03T18:07:06.984Z,36.13
2018-05-03T18:09:35.462Z,36.50
2018-05-03T18:12:03.809Z,36.57
2018-05-03T18:14:32.175Z,37.27
2018-05-03T18:17:00.575Z,37.47
2018-05-03T18:19:28.889Z,37.09
2018-05-03T18:21:58.097Z,37.56
2018-05-03T18:24:26.760Z,37.81
2018-05-03T18:26:55.138Z,38.31
2018-05-03T18:29:23.512Z,38.01
2018-05-03T18:31:51.878Z,38.51
2018-05-03T18:34:20.269Z,38.10
2018-05-03T18:36:48.576Z,38.15
2018-05-03T18:39:17.090Z,38.65
2018-05-03T18:41:45.445Z,38.71
2018-05-03T18:44:13.796Z,38.78
2018-05-03T18:46:42.498Z,39.22
2018-05-03T18:49:10.851Z,39.43
2018-05-03T18:51:39.198Z,39.48
2018-05-03T18:54:07.580Z,39.71
2018-05-03T18:56:35.937Z,40.24
2018-05-03T18:59:05.051Z,39.80
2018-05-03T19:01:33.444Z,39.97
2018-05-03T19:04:01.807Z,40.39
2018-05-03T19:06:30.155Z,40.37
2018-05-03T19:08:59.615Z,40.47
2018-05-03T19:11:28.744Z,40.62
2018-05-03T19:13:57.075Z,40.68
2018-05-03T19:16:25.431Z,41.21
2018-05-03T19:18:53.805Z,41.29
2018-05-03T19:21:22.897Z,41.38
2018-05-03T19:23:51.376Z,41.67
2018-05-03T19:26:19.668Z,41.74
2018-05-03T19:28:48.771Z,42.00
2018-05-03T19:31:17.468Z,42.38
2018-05-03T19:33:45.777Z,42.41
2018-05-03T19:36:14.093Z,42.47
2018-05-03T19:38:43.237Z,42.62
2018-05-03T19:41:11.765Z,42.79
2018-05-03T19:43:40.093Z,43.13
2018-05-03T19:46:08.447Z,42.99
2018-05-03T19:48:36.783Z,42.91
2018-05-03T19:51:05.119Z,43.51
2018-05-03T19:53:33.635Z,43.64
2018-05-03T19:56:02.008Z,43.53
2018-05-03T19:58:30.367Z,43.58
2018-05-03T20:00:58.752Z,43.45
2018-05-03T20:03:27.089Z,43.82
2018-05-03T20:05:56.187Z,44.22
2018-05-03T20:08:24.580Z,44.19
2018-05-03T20:10:53.715Z,44.28
2018-05-03T20:13:22.049Z,44.33
2018-05-03T20:15:50.938Z,44.51
2018-05-03T20:18:19.294Z,45.10
2018-05-03T20:20:47.615Z,45.39
2018-05-03T20:23:15.986Z,45.27
2018-05-03T20:25:44.370Z,45.51
2018-05-03T20:28:12.701Z,45.37
2018-05-03T20:30:41.075Z,45.48
2018-05-03T20:33:09.428Z,45.93
2018-05-03T20:35:37.765Z,46.26
2018-05-03T20:38:07.104Z,46.24
2018-05-03T20:40:35.458Z,46.07
2018-05-03T20:43:03.792Z,46.03
2018-05-03T20:45:32.170Z,46.33
2018-05-03T20:48:00.583Z,46.96
2018-05-03T20:50:29.028Z,46.90
2018-05-03T20:52:57.787Z,46.85
2018-05-03T20:55:26.193Z,47.37
2018-05-03T20:57:54.563Z,47.19
2018-05-03T21:00:23.064Z,47.59
2018-05-03T21:02:51.407Z,47.67
2018-05-03T21:05:19.815Z,47.87
2018-05-03T21:07:48.955Z,47.71
2018-05-03T21:10:18.066Z,47.30
2018-05-03T21:12:46.421Z,47.68
2018-05-03T21:15:14.796Z,48.42
2018-05-03T21:17:43.140Z,47.87
2018-05-03T21:20:11.480Z,48.22
2018-05-03T21:22:40.264Z,48.95
2018-05-03T21:25:08.611Z,49.66
2018-05-03T21:27:36.955Z,50.02
2018-05-03T21:30:05.357Z,50.70
2018-05-03T21:32:33.744Z,51.72
2018-05-03T21:35:02.100Z,52.21
2018-05-03T21:37:30.676Z,52.06
2018-05-03T21:39:59.009Z,52.26
2018-05-03T21:42:28.131Z,52.17
2018-05-03T21:44:56.936Z,51.93
2018-05-03T21:47:25.260Z,52.39
2018-05-03T21:49:53.627Z,53.18
2018-05-03T21:52:21.996Z,53.20
2018-05-03T21:54:50.310Z,52.53
2018-05-03T21:57:19.472Z,52.08
2018-05-03T21:59:47.836Z,51.69
2018-05-03T22:02:16.468Z,52.36
2018-05-03T22:04:44.840Z,52.71
2018-05-03T22:07:13.402Z,52.91
2018-05-03T22:09:41.740Z,53.17
2018-05-03T22:12:10.087Z,53.41
2018-05-03T22:14:38.460Z,53.90
2018-05-03T22:17:06.810Z,54.22
2018-05-03T22:19:35.891Z,54.40
2018-05-03T22:22:04.350Z,56.76
2018-05-03T22:24:32.707Z,58.26
2018-05-03T22:27:01.824Z,58.12
2018-05-03T22:29:30.812Z,58.46
2018-05-03T22:31:59.163Z,58.48
2018-05-03T22:34:27.510Z,57.51
2018-05-03T22:36:55.885Z,57.68
2018-05-03T22:39:24.222Z,56.83
2018-05-03T22:41:53.643Z,57.14
2018-05-03T22:44:22.022Z,56.80
2018-05-03T22:46:50.392Z,56.82
2018-05-03T22:49:18.724Z,56.27
2018-05-03T22:51:47.314Z,56.52
2018-05-03T22:54:15.651Z,56.13
2018-05-03T22:56:43.966Z,55.41
2018-05-03T22:59:12.351Z,56.89
2018-05-03T23:01:40.720Z,56.64
2018-05-03T23:04:09.058Z,58.25
2018-05-03T23:06:37.419Z,58.27
2018-05-03T23:09:06.509Z,58.39
2018-05-03T23:11:34.907Z,58.33
2018-05-03T23:14:04.296Z,58.56
2018-05-03T23:16:32.602Z,59.95
2018-05-03T23:19:00.941Z,60.59
2018-05-03T23:21:30.067Z,61.01
2018-05-03T23:23:59.178Z,61.09
2018-05-03T23:26:27.508Z,61.33
2018-05-03T23:28:55.895Z,61.65
2018-05-03T23:31:24.291Z,61.87
2018-05-03T23:33:52.618Z,62.01
2018-05-03T23:36:21.046Z,62.30
2018-05-03T23:38:49.376Z,61.99
2018-05-03T23:41:17.728Z,62.45
2018-05-03T23:43:46.292Z,62.66
2018-05-03T23:46:15.386Z,63.17
2018-05-03T23:48:43.712Z,62.84
2018-05-03T23:51:12.084Z,62.85
2018-05-03T23:53:40.407Z,63.41
2018-05-03T23:56:08.712Z,63.63
2018-05-03T23:58:37.144Z,63.47
